Long Branch, Illinois
Current Conditions -  °F | °C
As of 9:55 PM on Sunday 23 Nov 2014 (Local Time) from KHSB Reporting Station
Overcast Overcast  
Wind Chill: 57°   Ceiling: 900
Heat Index: 57°   Visibility: 10mi
Dew Point: 57°   Wind: 14mph
Humidity: 100%   Direction: 220°SW
Pressure: 29.33"   Gusts: 22mph
Location:  37.8301°N, 88.6284°W
Report Text: KHSB 240355Z AUTO 22012G19KT 10SM OVC009 14/14 A2933 RMK AO2 T01390139
Loading
Personal Weather Stations






























Interactive Weather Map New forecast layout! Learn more

10-Day Weather Forecast

Advertisements
Track Severe Weather on mobile